KSPS/SPS METAR and TAF weather

Enter ICAO airport designator
Station Type Date Time Source
KSPS METAR 2024/07/23 16:52 UTC NOAA

KSPS 231652Z 09009KT 050V130 10SM FEW035 31/18 A3007 RMK AO2 SLP171 T03060178


Station Type Date Time Source
KSPS Decoded METAR 2024/07/23 16:52 UTC NOAA

WICHITA FALLS SHEPPARD AFB, TX, United States (KSPS) 33-59N 98-30W 308M
Jul 23, 2024 - 12:52 PM EDT / 2024.07.23 1652 UTC
Wind: from the E (090 degrees) at 10 MPH (9 KT) (direction variable):0
Visibility: 10 mile(s):0
Sky conditions: mostly clear
Temperature: 87.1 F (30.6 C)
Dew Point: 64.0 F (17.8 C)
Relative Humidity: 46%
Pressure (altimeter): 30.07 in. Hg (1018 hPa)
ob: KSPS 231652Z 09009KT 050V130 10SM FEW035 31/18 A3007 RMK AO2 SLP171 T03060178
cycle: 17

Station Type Date Time Source
KSPS TAF 2024/07/23 12:22 UTC NOAA